sensor_id;sensor_type;location;lat;lon;timestamp;P1;durP1;ratioP1;P2;durP2;ratioP2
57667;SDS011;43499;52.366;12.912;2023-01-20T00:00:46;48.45;;;16.65;;
57667;SDS011;43499;52.366;12.912;2023-01-20T00:01:47;38.30;;;17.10;;
57667;SDS011;43499;52.366;12.912;2023-01-20T00:02:48;44.70;;;16.65;;
57667;SDS011;43499;52.366;12.912;2023-01-20T00:03:50;40.65;;;18.10;;
57667;SDS011;43499;52.366;12.912;2023-01-20T00:04:53;36.83;;;15.75;;
57667;SDS011;43499;52.366;12.912;2023-01-20T00:05:54;39.88;;;16.73;;
57667;SDS011;43499;52.366;12.912;2023-01-20T00:06:55;39.97;;;18.17;;
57667;SDS011;43499;52.366;12.912;2023-01-20T00:07:56;44.75;;;18.90;;
57667;SDS011;43499;52.366;12.912;2023-01-20T00:08:58;40.78;;;17.08;;
57667;SDS011;43499;52.366;12.912;2023-01-20T00:10:00;49.17;;;18.02;;
57667;SDS011;43499;52.366;12.912;2023-01-20T00:11:04;50.80;;;19.75;;
57667;SDS011;43499;52.366;12.912;2023-01-20T00:12:07;35.88;;;16.60;;
57667;SDS011;43499;52.366;12.912;2023-01-20T00:13:08;40.88;;;15.75;;
57667;SDS011;43499;52.366;12.912;2023-01-20T00:14:09;43.70;;;18.15;;
57667;SDS011;43499;52.366;12.912;2023-01-20T00:15:10;39.08;;;17.40;;
57667;SDS011;43499;52.366;12.912;2023-01-20T00:16:11;36.45;;;16.85;;
57667;SDS011;43499;52.366;12.912;2023-01-20T00:17:12;49.42;;;16.23;;
57667;SDS011;43499;52.366;12.912;2023-01-20T00:18:13;45.75;;;17.55;;
57667;SDS011;43499;52.366;12.912;2023-01-20T00:19:15;32.38;;;16.75;;
57667;SDS011;43499;52.366;12.912;2023-01-20T00:20:17;51.80;;;17.35;;
57667;SDS011;43499;52.366;12.912;2023-01-20T00:21:18;43.72;;;17.88;;
57667;SDS011;43499;52.366;12.912;2023-01-20T00:22:20;44.08;;;16.95;;
57667;SDS011;43499;52.366;12.912;2023-01-20T00:23:21;43.88;;;17.15;;
57667;SDS011;43499;52.366;12.912;2023-01-20T00:24:22;40.92;;;18.92;;
57667;SDS011;43499;52.366;12.912;2023-01-20T00:25:23;41.80;;;17.15;;
57667;SDS011;43499;52.366;12.912;2023-01-20T00:26:24;40.45;;;16.67;;
57667;SDS011;43499;52.366;12.912;2023-01-20T00:27:25;44.88;;;17.60;;
57667;SDS011;43499;52.366;12.912;2023-01-20T00:28:27;40.60;;;17.00;;
57667;SDS011;43499;52.366;12.912;2023-01-20T00:29:28;40.67;;;17.52;;
57667;SDS011;43499;52.366;12.912;2023-01-20T00:30:29;44.08;;;18.52;;
57667;SDS011;43499;52.366;12.912;2023-01-20T00:31:30;61.20;;;18.38;;
57667;SDS011;43499;52.366;12.912;2023-01-20T00:32:35;50.15;;;18.83;;
57667;SDS011;43499;52.366;12.912;2023-01-20T00:33:37;52.55;;;19.20;;
57667;SDS011;43499;52.366;12.912;2023-01-20T00:34:38;43.55;;;17.70;;
57667;SDS011;43499;52.366;12.912;2023-01-20T00:35:39;43.15;;;17.65;;
57667;SDS011;43499;52.366;12.912;2023-01-20T00:36:40;37.38;;;16.95;;
57667;SDS011;43499;52.366;12.912;2023-01-20T00:37:41;50.72;;;18.60;;
57667;SDS011;43499;52.366;12.912;2023-01-20T00:38:43;51.13;;;18.67;;
57667;SDS011;43499;52.366;12.912;2023-01-20T00:39:44;51.35;;;18.85;;
57667;SDS011;43499;52.366;12.912;2023-01-20T00:40:51;54.63;;;19.42;;
57667;SDS011;43499;52.366;12.912;2023-01-20T00:41:53;52.45;;;17.77;;
57667;SDS011;43499;52.366;12.912;2023-01-20T00:42:54;61.00;;;17.83;;
57667;SDS011;43499;52.366;12.912;2023-01-20T00:43:55;53.75;;;19.20;;
57667;SDS011;43499;52.366;12.912;2023-01-20T00:44:56;62.10;;;19.48;;
57667;SDS011;43499;52.366;12.912;2023-01-20T00:45:57;49.75;;;18.27;;
57667;SDS011;43499;52.366;12.912;2023-01-20T00:46:58;41.05;;;18.75;;
57667;SDS011;43499;52.366;12.912;2023-01-20T00:47:59;38.50;;;17.25;;
57667;SDS011;43499;52.366;12.912;2023-01-20T00:49:00;53.47;;;19.00;;
57667;SDS011;43499;52.366;12.912;2023-01-20T00:50:02;46.30;;;18.80;;
57667;SDS011;43499;52.366;12.912;2023-01-20T00:51:03;50.67;;;19.85;;
57667;SDS011;43499;52.366;12.912;2023-01-20T00:52:05;47.92;;;18.42;;
57667;SDS011;43499;52.366;12.912;2023-01-20T00:53:06;55.72;;;19.02;;
57667;SDS011;43499;52.366;12.912;2023-01-20T00:54:07;49.30;;;18.58;;
57667;SDS011;43499;52.366;12.912;2023-01-20T00:55:08;47.00;;;19.30;;
57667;SDS011;43499;52.366;12.912;2023-01-20T00:56:09;47.95;;;18.17;;
57667;SDS011;43499;52.366;12.912;2023-01-20T00:57:11;51.75;;;19.88;;
57667;SDS011;43499;52.366;12.912;2023-01-20T00:58:12;53.20;;;19.17;;
57667;SDS011;43499;52.366;12.912;2023-01-20T00:59:13;51.83;;;19.27;;
57667;SDS011;43499;52.366;12.912;2023-01-20T01:00:16;59.70;;;19.38;;
57667;SDS011;43499;52.366;12.912;2023-01-20T01:01:20;49.83;;;18.88;;
57667;SDS011;43499;52.366;12.912;2023-01-20T01:02:22;49.33;;;18.75;;
57667;SDS011;43499;52.366;12.912;2023-01-20T01:03:23;56.38;;;19.77;;
57667;SDS011;43499;52.366;12.912;2023-01-20T01:04:24;49.03;;;20.65;;
57667;SDS011;43499;52.366;12.912;2023-01-20T01:05:25;49.33;;;19.42;;
57667;SDS011;43499;52.366;12.912;2023-01-20T01:06:26;54.33;;;19.90;;
57667;SDS011;43499;52.366;12.912;2023-01-20T01:07:27;51.05;;;19.40;;
57667;SDS011;43499;52.366;12.912;2023-01-20T01:08:28;48.10;;;20.45;;
57667;SDS011;43499;52.366;12.912;2023-01-20T01:09:29;50.17;;;20.00;;
57667;SDS011;43499;52.366;12.912;2023-01-20T01:10:32;50.42;;;20.38;;
57667;SDS011;43499;52.366;12.912;2023-01-20T01:11:33;50.40;;;20.25;;
57667;SDS011;43499;52.366;12.912;2023-01-20T01:12:34;67.03;;;22.15;;
57667;SDS011;43499;52.366;12.912;2023-01-20T01:13:35;51.85;;;20.52;;
57667;SDS011;43499;52.366;12.912;2023-01-20T01:14:38;48.88;;;18.55;;
57667;SDS011;43499;52.366;12.912;2023-01-20T01:15:39;59.72;;;21.50;;
57667;SDS011;43499;52.366;12.912;2023-01-20T01:16:47;56.85;;;20.73;;
57667;SDS011;43499;52.366;12.912;2023-01-20T01:17:48;47.78;;;19.27;;
57667;SDS011;43499;52.366;12.912;2023-01-20T01:18:51;62.33;;;19.75;;
57667;SDS011;43499;52.366;12.912;2023-01-20T01:19:53;55.13;;;20.77;;
57667;SDS011;43499;52.366;12.912;2023-01-20T01:20:54;47.38;;;19.90;;
57667;SDS011;43499;52.366;12.912;2023-01-20T01:21:55;54.05;;;19.48;;
57667;SDS011;43499;52.366;12.912;2023-01-20T01:22:56;50.78;;;19.10;;
57667;SDS011;43499;52.366;12.912;2023-01-20T01:23:57;48.47;;;18.95;;
57667;SDS011;43499;52.366;12.912;2023-01-20T01:24:58;50.92;;;19.45;;
57667;SDS011;43499;52.366;12.912;2023-01-20T01:25:59;52.50;;;20.23;;
57667;SDS011;43499;52.366;12.912;2023-01-20T01:27:00;60.75;;;19.95;;
57667;SDS011;43499;52.366;12.912;2023-01-20T01:28:01;45.67;;;20.15;;
57667;SDS011;43499;52.366;12.912;2023-01-20T01:29:02;62.58;;;20.10;;
57667;SDS011;43499;52.366;12.912;2023-01-20T01:30:03;52.33;;;21.77;;
57667;SDS011;43499;52.366;12.912;2023-01-20T01:31:05;55.60;;;20.42;;
57667;SDS011;43499;52.366;12.912;2023-01-20T01:32:07;52.58;;;19.73;;
57667;SDS011;43499;52.366;12.912;2023-01-20T01:33:08;53.58;;;20.20;;
57667;SDS011;43499;52.366;12.912;2023-01-20T01:34:09;64.30;;;20.45;;
57667;SDS011;43499;52.366;12.912;2023-01-20T01:35:10;56.10;;;20.85;;
57667;SDS011;43499;52.366;12.912;2023-01-20T01:36:12;65.60;;;22.45;;
57667;SDS011;43499;52.366;12.912;2023-01-20T01:37:14;72.68;;;20.17;;
57667;SDS011;43499;52.366;12.912;2023-01-20T01:38:15;54.63;;;19.27;;
57667;SDS011;43499;52.366;12.912;2023-01-20T01:39:16;55.30;;;20.10;;
57667;SDS011;43499;52.366;12.912;2023-01-20T01:40:17;54.20;;;20.27;;
57667;SDS011;43499;52.366;12.912;2023-01-20T01:41:18;43.92;;;19.27;;
57667;SDS011;43499;52.366;12.912;2023-01-20T01:42:21;48.40;;;20.65;;
57667;SDS011;43499;52.366;12.912;2023-01-20T01:43:28;56.30;;;19.83;;
57667;SDS011;43499;52.366;12.912;2023-01-20T01:44:31;58.33;;;19.80;;
57667;SDS011;43499;52.366;12.912;2023-01-20T01:45:32;60.55;;;20.98;;
57667;SDS011;43499;52.366;12.912;2023-01-20T01:46:33;49.53;;;19.40;;
57667;SDS011;43499;52.366;12.912;2023-01-20T01:47:42;58.97;;;18.63;;
57667;SDS011;43499;52.366;12.912;2023-01-20T01:48:46;42.17;;;18.67;;
57667;SDS011;43499;52.366;12.912;2023-01-20T01:49:47;59.78;;;20.23;;
57667;SDS011;43499;52.366;12.912;2023-01-20T01:50:52;63.95;;;20.45;;
57667;SDS011;43499;52.366;12.912;2023-01-20T01:52:20;68.00;;;20.13;;
57667;SDS011;43499;52.366;12.912;2023-01-20T01:53:21;70.85;;;20.83;;
57667;SDS011;43499;52.366;12.912;2023-01-20T01:54:24;58.70;;;22.20;;
57667;SDS011;43499;52.366;12.912;2023-01-20T01:55:30;58.58;;;22.00;;
57667;SDS011;43499;52.366;12.912;2023-01-20T01:56:36;59.70;;;21.02;;
57667;SDS011;43499;52.366;12.912;2023-01-20T01:57:41;50.25;;;19.55;;
57667;SDS011;43499;52.366;12.912;2023-01-20T01:58:43;49.90;;;20.60;;
57667;SDS011;43499;52.366;12.912;2023-01-20T01:59:48;59.15;;;21.67;;
57667;SDS011;43499;52.366;12.912;2023-01-20T02:00:49;61.35;;;20.05;;
57667;SDS011;43499;52.366;12.912;2023-01-20T02:01:50;53.40;;;20.60;;
57667;SDS011;43499;52.366;12.912;2023-01-20T02:02:52;57.83;;;22.60;;
57667;SDS011;43499;52.366;12.912;2023-01-20T02:03:57;53.00;;;21.42;;
57667;SDS011;43499;52.366;12.912;2023-01-20T02:05:03;53.30;;;21.15;;
57667;SDS011;43499;52.366;12.912;2023-01-20T02:06:04;57.17;;;20.05;;
57667;SDS011;43499;52.366;12.912;2023-01-20T02:07:07;63.92;;;22.00;;
57667;SDS011;43499;52.366;12.912;2023-01-20T02:08:11;62.45;;;21.50;;
57667;SDS011;43499;52.366;12.912;2023-01-20T02:09:12;56.35;;;22.83;;
57667;SDS011;43499;52.366;12.912;2023-01-20T02:10:14;67.00;;;22.05;;
57667;SDS011;43499;52.366;12.912;2023-01-20T02:11:15;56.53;;;21.08;;
57667;SDS011;43499;52.366;12.912;2023-01-20T02:12:17;60.90;;;21.45;;
57667;SDS011;43499;52.366;12.912;2023-01-20T02:13:19;61.47;;;22.02;;
57667;SDS011;43499;52.366;12.912;2023-01-20T02:14:22;63.20;;;22.00;;
57667;SDS011;43499;52.366;12.912;2023-01-20T02:15:28;50.58;;;21.75;;
57667;SDS011;43499;52.366;12.912;2023-01-20T02:16:50;64.78;;;22.52;;
57667;SDS011;43499;52.366;12.912;2023-01-20T02:17:56;70.78;;;23.30;;
57667;SDS011;43499;52.366;12.912;2023-01-20T02:19:19;57.53;;;23.20;;
57667;SDS011;43499;52.366;12.912;2023-01-20T02:20:42;61.60;;;23.35;;
57667;SDS011;43499;52.366;12.912;2023-01-20T02:23:28;56.35;;;20.17;;
57667;SDS011;43499;52.366;12.912;2023-01-20T02:25:09;54.53;;;19.88;;
57667;SDS011;43499;52.366;12.912;2023-01-20T02:28:00;57.38;;;20.13;;
57667;SDS011;43499;52.366;12.912;2023-01-20T02:29:50;55.53;;;22.33;;
57667;SDS011;43499;52.366;12.912;2023-01-20T02:31:18;64.72;;;22.30;;
57667;SDS011;43499;52.366;12.912;2023-01-20T02:33:45;66.88;;;23.80;;
57667;SDS011;43499;52.366;12.912;2023-01-20T02:35:02;64.28;;;23.95;;
57667;SDS011;43499;52.366;12.912;2023-01-20T02:36:11;57.55;;;21.83;;
57667;SDS011;43499;52.366;12.912;2023-01-20T02:37:22;60.08;;;23.10;;
57667;SDS011;43499;52.366;12.912;2023-01-20T02:38:33;49.17;;;20.90;;
57667;SDS011;43499;52.366;12.912;2023-01-20T02:39:51;66.68;;;21.73;;
57667;SDS011;43499;52.366;12.912;2023-01-20T02:42:14;56.95;;;21.40;;
57667;SDS011;43499;52.366;12.912;2023-01-20T02:43:28;57.38;;;23.30;;
57667;SDS011;43499;52.366;12.912;2023-01-20T02:44:41;70.88;;;23.17;;
57667;SDS011;43499;52.366;12.912;2023-01-20T02:46:00;58.88;;;22.10;;
57667;SDS011;43499;52.366;12.912;2023-01-20T02:47:15;63.08;;;23.52;;
57667;SDS011;43499;52.366;12.912;2023-01-20T02:48:37;51.33;;;23.20;;
57667;SDS011;43499;52.366;12.912;2023-01-20T02:49:51;77.32;;;23.48;;
57667;SDS011;43499;52.366;12.912;2023-01-20T02:51:00;51.42;;;20.35;;
57667;SDS011;43499;52.366;12.912;2023-01-20T02:52:10;63.05;;;23.63;;
57667;SDS011;43499;52.366;12.912;2023-01-20T02:53:21;59.80;;;22.98;;
57667;SDS011;43499;52.366;12.912;2023-01-20T02:54:26;62.75;;;23.27;;
57667;SDS011;43499;52.366;12.912;2023-01-20T02:55:43;65.18;;;23.77;;
57667;SDS011;43499;52.366;12.912;2023-01-20T02:56:47;59.20;;;22.08;;
57667;SDS011;43499;52.366;12.912;2023-01-20T02:57:53;70.05;;;25.17;;
57667;SDS011;43499;52.366;12.912;2023-01-20T02:59:05;64.30;;;24.42;;
57667;SDS011;43499;52.366;12.912;2023-01-20T03:00:11;60.92;;;23.25;;
57667;SDS011;43499;52.366;12.912;2023-01-20T03:01:24;62.03;;;24.30;;
57667;SDS011;43499;52.366;12.912;2023-01-20T03:02:31;67.25;;;23.63;;
57667;SDS011;43499;52.366;12.912;2023-01-20T03:03:37;74.95;;;26.08;;
57667;SDS011;43499;52.366;12.912;2023-01-20T03:04:44;68.35;;;25.42;;
57667;SDS011;43499;52.366;12.912;2023-01-20T03:05:52;70.00;;;22.83;;
57667;SDS011;43499;52.366;12.912;2023-01-20T03:06:56;69.38;;;23.08;;
57667;SDS011;43499;52.366;12.912;2023-01-20T03:08:00;67.82;;;24.15;;
57667;SDS011;43499;52.366;12.912;2023-01-20T03:09:07;72.20;;;25.58;;
57667;SDS011;43499;52.366;12.912;2023-01-20T03:10:13;53.72;;;21.83;;
57667;SDS011;43499;52.366;12.912;2023-01-20T03:11:18;62.70;;;23.58;;
57667;SDS011;43499;52.366;12.912;2023-01-20T03:13:31;64.75;;;24.25;;
57667;SDS011;43499;52.366;12.912;2023-01-20T03:14:36;67.70;;;23.10;;
57667;SDS011;43499;52.366;12.912;2023-01-20T03:15:57;66.82;;;24.80;;
57667;SDS011;43499;52.366;12.912;2023-01-20T03:17:00;72.30;;;23.85;;
57667;SDS011;43499;52.366;12.912;2023-01-20T03:18:02;61.35;;;23.48;;
57667;SDS011;43499;52.366;12.912;2023-01-20T03:19:03;62.67;;;23.65;;
57667;SDS011;43499;52.366;12.912;2023-01-20T03:20:04;60.72;;;24.33;;
57667;SDS011;43499;52.366;12.912;2023-01-20T03:21:06;61.42;;;22.80;;
57667;SDS011;43499;52.366;12.912;2023-01-20T03:22:09;71.80;;;24.52;;
57667;SDS011;43499;52.366;12.912;2023-01-20T03:23:11;66.00;;;24.45;;
57667;SDS011;43499;52.366;12.912;2023-01-20T03:24:12;64.18;;;24.48;;
57667;SDS011;43499;52.366;12.912;2023-01-20T03:25:13;68.65;;;23.15;;
57667;SDS011;43499;52.366;12.912;2023-01-20T03:26:15;64.40;;;23.88;;
57667;SDS011;43499;52.366;12.912;2023-01-20T03:27:17;65.05;;;24.95;;
57667;SDS011;43499;52.366;12.912;2023-01-20T03:28:18;61.42;;;24.35;;
57667;SDS011;43499;52.366;12.912;2023-01-20T03:29:20;68.13;;;24.08;;
57667;SDS011;43499;52.366;12.912;2023-01-20T03:30:21;65.90;;;24.83;;
57667;SDS011;43499;52.366;12.912;2023-01-20T03:31:28;71.03;;;25.27;;
57667;SDS011;43499;52.366;12.912;2023-01-20T03:32:34;60.95;;;24.20;;
57667;SDS011;43499;52.366;12.912;2023-01-20T03:33:35;59.80;;;24.90;;
57667;SDS011;43499;52.366;12.912;2023-01-20T03:34:37;69.45;;;24.20;;
57667;SDS011;43499;52.366;12.912;2023-01-20T03:35:41;72.03;;;24.23;;
57667;SDS011;43499;52.366;12.912;2023-01-20T03:36:43;67.82;;;25.15;;
57667;SDS011;43499;52.366;12.912;2023-01-20T03:37:44;65.30;;;25.15;;
57667;SDS011;43499;52.366;12.912;2023-01-20T03:38:45;65.70;;;24.80;;
57667;SDS011;43499;52.366;12.912;2023-01-20T03:39:47;65.25;;;26.33;;
57667;SDS011;43499;52.366;12.912;2023-01-20T03:42:28;52.25;;;22.73;;
57667;SDS011;43499;52.366;12.912;2023-01-20T03:43:37;67.38;;;22.73;;
57667;SDS011;43499;52.366;12.912;2023-01-20T03:44:54;63.75;;;22.30;;
57667;SDS011;43499;52.366;12.912;2023-01-20T03:46:01;55.00;;;22.35;;
57667;SDS011;43499;52.366;12.912;2023-01-20T03:48:49;55.03;;;21.88;;
57667;SDS011;43499;52.366;12.912;2023-01-20T03:50:05;55.07;;;21.50;;
57667;SDS011;43499;52.366;12.912;2023-01-20T03:53:59;58.03;;;23.55;;
57667;SDS011;43499;52.366;12.912;2023-01-20T03:55:10;58.15;;;21.08;;
57667;SDS011;43499;52.366;12.912;2023-01-20T03:57:56;59.35;;;22.33;;
57667;SDS011;43499;52.366;12.912;2023-01-20T03:59:03;68.15;;;22.52;;
57667;SDS011;43499;52.366;12.912;2023-01-20T04:00:06;66.07;;;21.45;;
57667;SDS011;43499;52.366;12.912;2023-01-20T04:01:12;68.95;;;24.60;;
57667;SDS011;43499;52.366;12.912;2023-01-20T04:02:15;59.83;;;23.15;;
57667;SDS011;43499;52.366;12.912;2023-01-20T04:03:20;86.55;;;25.38;;
57667;SDS011;43499;52.366;12.912;2023-01-20T04:04:30;72.10;;;24.90;;
57667;SDS011;43499;52.366;12.912;2023-01-20T04:05:36;59.97;;;24.20;;
57667;SDS011;43499;52.366;12.912;2023-01-20T04:06:39;66.85;;;25.65;;
57667;SDS011;43499;52.366;12.912;2023-01-20T04:07:43;64.75;;;24.42;;
57667;SDS011;43499;52.366;12.912;2023-01-20T04:08:47;67.43;;;25.20;;
57667;SDS011;43499;52.366;12.912;2023-01-20T04:09:53;72.05;;;26.70;;
57667;SDS011;43499;52.366;12.912;2023-01-20T04:10:58;65.72;;;24.77;;
57667;SDS011;43499;52.366;12.912;2023-01-20T04:12:02;61.65;;;23.10;;
57667;SDS011;43499;52.366;12.912;2023-01-20T04:13:03;63.63;;;24.30;;
57667;SDS011;43499;52.366;12.912;2023-01-20T04:14:06;65.78;;;23.63;;
57667;SDS011;43499;52.366;12.912;2023-01-20T04:15:08;64.78;;;25.35;;
57667;SDS011;43499;52.366;12.912;2023-01-20T04:16:14;67.15;;;25.20;;
57667;SDS011;43499;52.366;12.912;2023-01-20T04:17:16;67.97;;;26.20;;
57667;SDS011;43499;52.366;12.912;2023-01-20T04:18:18;66.90;;;25.65;;
57667;SDS011;43499;52.366;12.912;2023-01-20T04:19:22;76.28;;;26.20;;
57667;SDS011;43499;52.366;12.912;2023-01-20T04:20:24;66.82;;;25.38;;
57667;SDS011;43499;52.366;12.912;2023-01-20T04:21:28;76.45;;;26.55;;
57667;SDS011;43499;52.366;12.912;2023-01-20T04:22:37;67.80;;;24.42;;
57667;SDS011;43499;52.366;12.912;2023-01-20T04:23:43;69.57;;;24.20;;
57667;SDS011;43499;52.366;12.912;2023-01-20T04:24:51;62.88;;;24.77;;
57667;SDS011;43499;52.366;12.912;2023-01-20T04:25:57;71.20;;;26.33;;
57667;SDS011;43499;52.366;12.912;2023-01-20T04:26:58;69.80;;;25.48;;
57667;SDS011;43499;52.366;12.912;2023-01-20T04:27:59;71.03;;;25.42;;
57667;SDS011;43499;52.366;12.912;2023-01-20T04:29:00;67.10;;;26.02;;
57667;SDS011;43499;52.366;12.912;2023-01-20T04:30:08;79.55;;;25.75;;
57667;SDS011;43499;52.366;12.912;2023-01-20T04:31:09;69.47;;;26.45;;
57667;SDS011;43499;52.366;12.912;2023-01-20T04:32:11;71.55;;;26.42;;
57667;SDS011;43499;52.366;12.912;2023-01-20T04:33:12;75.43;;;26.05;;
57667;SDS011;43499;52.366;12.912;2023-01-20T04:34:13;67.95;;;26.13;;
57667;SDS011;43499;52.366;12.912;2023-01-20T04:35:18;68.32;;;25.15;;
57667;SDS011;43499;52.366;12.912;2023-01-20T04:36:19;67.97;;;26.67;;
57667;SDS011;43499;52.366;12.912;2023-01-20T04:37:20;81.75;;;28.25;;
57667;SDS011;43499;52.366;12.912;2023-01-20T04:38:21;70.40;;;25.95;;
57667;SDS011;43499;52.366;12.912;2023-01-20T04:39:22;77.18;;;28.38;;
57667;SDS011;43499;52.366;12.912;2023-01-20T04:40:23;64.15;;;26.13;;
57667;SDS011;43499;52.366;12.912;2023-01-20T04:41:24;73.63;;;27.45;;
57667;SDS011;43499;52.366;12.912;2023-01-20T04:42:25;76.60;;;25.95;;
57667;SDS011;43499;52.366;12.912;2023-01-20T04:43:27;75.95;;;26.23;;
57667;SDS011;43499;52.366;12.912;2023-01-20T04:44:28;71.57;;;27.23;;
57667;SDS011;43499;52.366;12.912;2023-01-20T04:45:29;79.07;;;28.15;;
57667;SDS011;43499;52.366;12.912;2023-01-20T04:46:30;83.15;;;29.67;;
57667;SDS011;43499;52.366;12.912;2023-01-20T04:47:31;76.13;;;26.65;;
57667;SDS011;43499;52.366;12.912;2023-01-20T04:48:33;79.43;;;28.85;;
57667;SDS011;43499;52.366;12.912;2023-01-20T04:49:34;86.68;;;29.42;;
57667;SDS011;43499;52.366;12.912;2023-01-20T04:50:38;70.80;;;26.65;;
57667;SDS011;43499;52.366;12.912;2023-01-20T04:51:40;83.35;;;29.00;;
57667;SDS011;43499;52.366;12.912;2023-01-20T04:52:41;75.55;;;27.08;;
57667;SDS011;43499;52.366;12.912;2023-01-20T04:53:43;84.60;;;28.02;;
57667;SDS011;43499;52.366;12.912;2023-01-20T04:54:44;70.78;;;26.17;;
57667;SDS011;43499;52.366;12.912;2023-01-20T04:55:45;67.47;;;26.25;;
57667;SDS011;43499;52.366;12.912;2023-01-20T04:56:47;67.78;;;25.88;;
57667;SDS011;43499;52.366;12.912;2023-01-20T04:57:48;80.45;;;27.25;;
57667;SDS011;43499;52.366;12.912;2023-01-20T04:58:49;74.72;;;28.88;;
57667;SDS011;43499;52.366;12.912;2023-01-20T04:59:50;79.60;;;29.60;;
57667;SDS011;43499;52.366;12.912;2023-01-20T05:00:51;73.93;;;26.38;;
57667;SDS011;43499;52.366;12.912;2023-01-20T05:01:52;69.15;;;25.95;;
57667;SDS011;43499;52.366;12.912;2023-01-20T05:02:55;73.20;;;26.20;;
57667;SDS011;43499;52.366;12.912;2023-01-20T05:03:57;82.45;;;29.25;;
57667;SDS011;43499;52.366;12.912;2023-01-20T05:04:58;73.90;;;28.85;;
57667;SDS011;43499;52.366;12.912;2023-01-20T05:05:59;77.60;;;29.02;;
57667;SDS011;43499;52.366;12.912;2023-01-20T05:07:00;67.55;;;27.45;;
57667;SDS011;43499;52.366;12.912;2023-01-20T05:08:02;73.95;;;29.35;;
57667;SDS011;43499;52.366;12.912;2023-01-20T05:09:04;72.18;;;27.27;;
57667;SDS011;43499;52.366;12.912;2023-01-20T05:10:05;65.28;;;26.88;;
57667;SDS011;43499;52.366;12.912;2023-01-20T05:11:07;78.28;;;28.90;;
57667;SDS011;43499;52.366;12.912;2023-01-20T05:12:08;78.32;;;28.42;;
57667;SDS011;43499;52.366;12.912;2023-01-20T05:13:09;72.85;;;27.80;;
57667;SDS011;43499;52.366;12.912;2023-01-20T05:14:10;80.07;;;28.05;;
57667;SDS011;43499;52.366;12.912;2023-01-20T05:15:11;74.95;;;26.50;;
57667;SDS011;43499;52.366;12.912;2023-01-20T05:16:12;76.25;;;28.58;;
57667;SDS011;43499;52.366;12.912;2023-01-20T05:17:13;71.50;;;26.45;;
57667;SDS011;43499;52.366;12.912;2023-01-20T05:18:14;65.70;;;26.20;;
57667;SDS011;43499;52.366;12.912;2023-01-20T05:19:16;77.28;;;28.92;;
57667;SDS011;43499;52.366;12.912;2023-01-20T05:20:17;77.10;;;27.30;;
57667;SDS011;43499;52.366;12.912;2023-01-20T05:21:19;67.95;;;26.23;;
57667;SDS011;43499;52.366;12.912;2023-01-20T05:22:21;64.38;;;24.75;;
57667;SDS011;43499;52.366;12.912;2023-01-20T05:23:22;84.18;;;27.02;;
57667;SDS011;43499;52.366;12.912;2023-01-20T05:24:23;78.78;;;28.23;;
57667;SDS011;43499;52.366;12.912;2023-01-20T05:25:24;69.65;;;27.27;;
57667;SDS011;43499;52.366;12.912;2023-01-20T05:26:25;68.45;;;26.77;;
57667;SDS011;43499;52.366;12.912;2023-01-20T05:27:26;63.05;;;26.73;;
57667;SDS011;43499;52.366;12.912;2023-01-20T05:28:27;70.30;;;26.98;;
57667;SDS011;43499;52.366;12.912;2023-01-20T05:29:28;71.35;;;25.95;;
57667;SDS011;43499;52.366;12.912;2023-01-20T05:30:29;70.45;;;26.85;;
57667;SDS011;43499;52.366;12.912;2023-01-20T05:31:30;66.28;;;25.13;;
57667;SDS011;43499;52.366;12.912;2023-01-20T05:32:32;69.28;;;27.30;;
57667;SDS011;43499;52.366;12.912;2023-01-20T05:33:33;67.30;;;25.45;;
57667;SDS011;43499;52.366;12.912;2023-01-20T05:34:34;64.75;;;25.52;;
57667;SDS011;43499;52.366;12.912;2023-01-20T05:35:38;67.05;;;25.40;;
57667;SDS011;43499;52.366;12.912;2023-01-20T05:36:40;64.88;;;27.00;;
57667;SDS011;43499;52.366;12.912;2023-01-20T05:37:41;76.25;;;25.95;;
57667;SDS011;43499;52.366;12.912;2023-01-20T05:38:42;69.65;;;27.10;;
57667;SDS011;43499;52.366;12.912;2023-01-20T05:39:43;70.43;;;27.77;;
57667;SDS011;43499;52.366;12.912;2023-01-20T05:40:44;75.43;;;27.60;;
57667;SDS011;43499;52.366;12.912;2023-01-20T05:41:45;77.40;;;26.88;;
57667;SDS011;43499;52.366;12.912;2023-01-20T05:42:46;75.53;;;26.02;;
57667;SDS011;43499;52.366;12.912;2023-01-20T05:43:47;72.30;;;25.80;;
57667;SDS011;43499;52.366;12.912;2023-01-20T05:44:48;67.38;;;25.25;;
57667;SDS011;43499;52.366;12.912;2023-01-20T05:45:49;71.30;;;26.90;;
57667;SDS011;43499;52.366;12.912;2023-01-20T05:46:50;74.72;;;27.52;;
57667;SDS011;43499;52.366;12.912;2023-01-20T05:47:57;83.55;;;27.45;;
57667;SDS011;43499;52.366;12.912;2023-01-20T05:49:00;72.80;;;26.95;;
57667;SDS011;43499;52.366;12.912;2023-01-20T05:50:03;73.25;;;26.63;;
57667;SDS011;43499;52.366;12.912;2023-01-20T05:51:04;70.50;;;25.48;;
57667;SDS011;43499;52.366;12.912;2023-01-20T05:52:06;75.95;;;28.02;;
57667;SDS011;43499;52.366;12.912;2023-01-20T05:53:07;67.57;;;28.02;;
57667;SDS011;43499;52.366;12.912;2023-01-20T05:54:08;64.85;;;25.50;;
57667;SDS011;43499;52.366;12.912;2023-01-20T05:55:09;73.15;;;27.48;;
57667;SDS011;43499;52.366;12.912;2023-01-20T05:56:10;68.10;;;26.13;;
57667;SDS011;43499;52.366;12.912;2023-01-20T05:57:15;66.68;;;26.85;;
57667;SDS011;43499;52.366;12.912;2023-01-20T05:58:17;76.30;;;27.80;;
57667;SDS011;43499;52.366;12.912;2023-01-20T05:59:18;62.92;;;27.73;;
57667;SDS011;43499;52.366;12.912;2023-01-20T06:00:20;72.82;;;28.75;;
57667;SDS011;43499;52.366;12.912;2023-01-20T06:01:21;70.78;;;28.23;;
57667;SDS011;43499;52.366;12.912;2023-01-20T06:02:22;66.57;;;27.92;;
57667;SDS011;43499;52.366;12.912;2023-01-20T06:03:23;70.32;;;29.65;;
57667;SDS011;43499;52.366;12.912;2023-01-20T06:04:24;78.00;;;28.63;;
57667;SDS011;43499;52.366;12.912;2023-01-20T06:05:25;70.55;;;27.23;;
57667;SDS011;43499;52.366;12.912;2023-01-20T06:06:26;82.18;;;28.85;;
57667;SDS011;43499;52.366;12.912;2023-01-20T06:07:28;63.85;;;25.42;;
57667;SDS011;43499;52.366;12.912;2023-01-20T06:08:29;82.13;;;29.27;;
57667;SDS011;43499;52.366;12.912;2023-01-20T06:09:30;71.40;;;26.35;;
57667;SDS011;43499;52.366;12.912;2023-01-20T06:10:31;72.65;;;27.75;;
57667;SDS011;43499;52.366;12.912;2023-01-20T06:11:32;79.90;;;26.67;;
57667;SDS011;43499;52.366;12.912;2023-01-20T06:12:33;85.75;;;29.88;;
57667;SDS011;43499;52.366;12.912;2023-01-20T06:13:34;64.07;;;26.25;;
57667;SDS011;43499;52.366;12.912;2023-01-20T06:14:35;73.20;;;26.77;;
57667;SDS011;43499;52.366;12.912;2023-01-20T06:15:37;65.90;;;25.45;;
57667;SDS011;43499;52.366;12.912;2023-01-20T06:16:38;66.10;;;25.55;;
57667;SDS011;43499;52.366;12.912;2023-01-20T06:17:39;73.43;;;30.23;;
57667;SDS011;43499;52.366;12.912;2023-01-20T06:18:40;73.50;;;27.50;;
57667;SDS011;43499;52.366;12.912;2023-01-20T06:19:41;77.20;;;29.52;;
57667;SDS011;43499;52.366;12.912;2023-01-20T06:20:42;84.40;;;29.60;;
57667;SDS011;43499;52.366;12.912;2023-01-20T06:21:43;80.35;;;31.30;;